createdAt,value
2023-02-16T00:02:17.189Z,30.90
2023-02-16T00:04:43.814Z,31.08
2023-02-16T00:07:19.579Z,30.77
2023-02-16T00:09:46.161Z,29.38
2023-02-16T00:12:40.090Z,32.03
2023-02-16T00:15:21.430Z,33.17
2023-02-16T00:17:48.831Z,30.67
2023-02-16T00:20:17.147Z,30.73
2023-02-16T00:22:48.051Z,31.52
2023-02-16T00:25:14.753Z,30.65
2023-02-16T00:27:41.926Z,32.22
2023-02-16T00:30:19.898Z,32.10
2023-02-16T00:32:46.565Z,29.55
2023-02-16T00:35:20.877Z,29.88
2023-02-16T00:37:48.796Z,32.55
2023-02-16T00:42:51.121Z,30.52
2023-02-16T00:45:20.484Z,30.08
2023-02-16T00:47:49.839Z,32.15
2023-02-16T00:50:19.703Z,32.20
2023-02-16T00:52:47.526Z,31.67
2023-02-16T00:55:19.333Z,31.80
2023-02-16T00:57:53.410Z,30.45
2023-02-16T01:00:39.674Z,29.80
2023-02-16T01:03:10.208Z,31.33
2023-02-16T01:05:39.612Z,31.30
2023-02-16T01:08:36.103Z,32.22
2023-02-16T01:11:10.041Z,31.67
2023-02-16T01:13:44.869Z,30.58
2023-02-16T01:16:21.415Z,31.50
2023-02-16T01:18:48.644Z,30.92
2023-02-16T01:21:15.339Z,31.15
2023-02-16T01:23:42.171Z,29.63
2023-02-16T01:26:17.107Z,31.20
2023-02-16T01:28:44.477Z,31.95
2023-02-16T01:31:12.446Z,32.45
2023-02-16T01:33:39.639Z,32.17
2023-02-16T01:36:21.851Z,31.67
2023-02-16T01:38:48.526Z,31.85
2023-02-16T01:41:38.182Z,30.52
2023-02-16T01:44:12.815Z,30.80
2023-02-16T01:46:51.089Z,32.42
2023-02-16T01:49:25.972Z,32.53
2023-02-16T01:52:23.861Z,32.45
2023-02-16T01:54:59.143Z,29.80
2023-02-16T01:57:34.982Z,32.38
2023-02-16T02:00:09.610Z,31.88
2023-02-16T02:02:39.962Z,32.53
2023-02-16T02:05:38.482Z,31.27
2023-02-16T02:08:36.302Z,30.55
2023-02-16T02:11:20.288Z,32.20
2023-02-16T02:14:07.326Z,32.45
2023-02-16T02:19:03.562Z,30.77
2023-02-16T02:22:26.735Z,29.88
2023-02-16T02:25:20.126Z,27.95
2023-02-16T02:28:14.503Z,30.83
2023-02-16T02:31:02.823Z,29.60
2023-02-16T02:33:57.302Z,31.75
2023-02-16T02:36:32.154Z,30.73
2023-02-16T02:39:35.866Z,31.10
2023-02-16T02:42:38.520Z,30.13
2023-02-16T02:45:20.129Z,30.38
2023-02-16T02:47:50.969Z,30.58
2023-02-16T02:50:41.766Z,32.88
2023-02-16T02:53:13.975Z,30.63
2023-02-16T02:56:19.364Z,32.42
2023-02-16T02:59:08.946Z,32.08
2023-02-16T03:01:38.094Z,30.23
2023-02-16T03:04:09.020Z,32.05
2023-02-16T03:06:44.135Z,30.48
2023-02-16T03:09:23.442Z,32.53
2023-02-16T03:12:11.585Z,28.70
2023-02-16T03:14:44.750Z,30.40
2023-02-16T03:17:33.967Z,29.20
2023-02-16T03:20:22.696Z,30.38
2023-02-16T03:23:08.888Z,31.30
2023-02-16T03:25:58.098Z,31.80
2023-02-16T03:28:49.953Z,30.48
2023-02-16T03:31:22.163Z,30.05
2023-02-16T03:33:55.002Z,31.15
2023-02-16T03:36:24.692Z,30.52
2023-02-16T03:38:52.319Z,31.13
2023-02-16T03:41:18.949Z,31.60
2023-02-16T03:43:45.657Z,32.35
2023-02-16T03:46:14.751Z,30.40
2023-02-16T03:48:41.571Z,30.40
2023-02-16T03:51:08.154Z,31.38
2023-02-16T03:53:34.775Z,31.52
2023-02-16T03:56:04.270Z,30.88
2023-02-16T03:58:30.929Z,29.33
2023-02-16T04:00:59.063Z,32.05
2023-02-16T04:03:26.677Z,31.60
2023-02-16T04:05:53.702Z,30.80
2023-02-16T04:08:32.520Z,29.50
2023-02-16T04:11:03.217Z,29.40
2023-02-16T04:13:30.011Z,33.10
2023-02-16T04:15:59.523Z,32.20
2023-02-16T04:18:26.591Z,31.90
2023-02-16T04:20:54.089Z,30.65
2023-02-16T04:23:20.698Z,32.38
2023-02-16T04:25:47.424Z,31.52
2023-02-16T04:28:14.010Z,30.83
2023-02-16T04:30:40.967Z,30.77
2023-02-16T04:33:07.739Z,32.58
2023-02-16T04:35:34.407Z,30.90
2023-02-16T04:38:01.001Z,31.88
2023-02-16T04:40:27.694Z,34.72
2023-02-16T04:42:56.659Z,33.72
2023-02-16T04:45:25.072Z,33.28
2023-02-16T04:47:52.147Z,32.45
2023-02-16T04:50:20.805Z,34.75
2023-02-16T04:52:47.446Z,33.13
2023-02-16T04:55:14.231Z,36.33
2023-02-16T04:57:40.893Z,33.88
2023-02-16T05:00:10.016Z,35.90
2023-02-16T05:02:41.536Z,35.60
2023-02-16T05:05:10.988Z,35.45
2023-02-16T05:07:37.899Z,37.15
2023-02-16T05:10:06.008Z,35.90
2023-02-16T05:12:50.978Z,35.85
2023-02-16T05:15:20.451Z,33.97
2023-02-16T05:17:50.037Z,34.60
2023-02-16T05:20:16.783Z,32.60
2023-02-16T05:22:45.733Z,32.63
2023-02-16T05:25:12.389Z,32.63
2023-02-16T05:27:39.539Z,33.28
2023-02-16T05:30:09.624Z,34.75
2023-02-16T05:32:36.270Z,34.33
2023-02-16T05:35:06.694Z,32.92
2023-02-16T05:37:33.440Z,34.25
2023-02-16T05:40:02.991Z,35.35
2023-02-16T05:42:29.627Z,32.63
2023-02-16T05:44:59.243Z,32.78
2023-02-16T05:47:26.033Z,33.30
2023-02-16T05:49:52.625Z,31.83
2023-02-16T05:52:19.286Z,33.35
2023-02-16T05:54:48.906Z,36.20
2023-02-16T05:57:15.640Z,32.45
2023-02-16T05:59:42.345Z,33.88
2023-02-16T06:02:09.993Z,32.67
2023-02-16T06:04:38.847Z,32.25
2023-02-16T06:07:11.212Z,32.78
2023-02-16T06:09:39.134Z,32.17
2023-02-16T06:12:12.303Z,32.33
2023-02-16T06:14:38.937Z,34.70
2023-02-16T06:17:06.705Z,33.95
2023-02-16T06:19:33.338Z,34.33
2023-02-16T06:22:00.236Z,32.50
2023-02-16T06:24:26.971Z,35.45
2023-02-16T06:26:53.628Z,35.05
2023-02-16T06:29:20.848Z,33.70
2023-02-16T06:31:47.526Z,34.33
2023-02-16T06:34:14.421Z,33.22
2023-02-16T06:36:50.352Z,33.55
2023-02-16T06:39:17.618Z,32.10
2023-02-16T06:41:44.256Z,33.58
2023-02-16T06:44:19.960Z,32.05
2023-02-16T06:46:47.712Z,31.45
2023-02-16T06:49:20.716Z,33.67
2023-02-16T06:51:49.240Z,32.72
2023-02-16T06:54:16.806Z,33.08
2023-02-16T06:56:43.459Z,33.97
2023-02-16T06:59:14.446Z,32.72
2023-02-16T07:01:44.138Z,31.98
2023-02-16T07:04:12.070Z,33.45
2023-02-16T07:06:38.750Z,34.15
2023-02-16T07:09:05.451Z,34.00
2023-02-16T07:11:32.067Z,37.13
2023-02-16T07:13:58.750Z,35.28
2023-02-16T07:16:25.479Z,34.42
2023-02-16T07:18:54.784Z,36.63
2023-02-16T07:21:21.373Z,34.08
2023-02-16T07:23:48.109Z,34.83
2023-02-16T07:26:14.782Z,35.22
2023-02-16T07:28:41.426Z,41.95
2023-02-16T07:31:13.949Z,38.30
2023-02-16T07:33:40.726Z,38.63
2023-02-16T07:36:08.947Z,36.92
2023-02-16T07:38:39.069Z,36.85
2023-02-16T07:41:08.793Z,37.75
2023-02-16T07:43:37.842Z,39.05
2023-02-16T07:46:05.679Z,39.83
2023-02-16T07:51:03.781Z,41.63
2023-02-16T07:53:30.825Z,40.40
2023-02-16T07:55:57.897Z,39.38
2023-02-16T07:58:36.912Z,40.70
2023-02-16T08:01:13.043Z,42.47
2023-02-16T08:03:41.258Z,39.20
2023-02-16T08:06:11.326Z,40.72
2023-02-16T08:08:38.242Z,39.30
2023-02-16T08:11:13.079Z,42.13
2023-02-16T08:13:43.498Z,40.75
2023-02-16T08:16:21.138Z,37.85
2023-02-16T08:18:54.478Z,40.95
2023-02-16T08:21:23.731Z,38.83
2023-02-16T08:24:01.802Z,39.38
2023-02-16T08:26:35.018Z,39.60
2023-02-16T08:29:10.300Z,38.65
2023-02-16T08:31:41.190Z,38.00
2023-02-16T08:34:11.218Z,41.50
2023-02-16T08:36:38.695Z,40.97
2023-02-16T08:39:09.006Z,38.67
2023-02-16T08:41:37.659Z,40.63
2023-02-16T08:44:06.801Z,42.13
2023-02-16T08:46:34.908Z,39.35
2023-02-16T08:49:02.057Z,41.45
2023-02-16T08:51:34.718Z,40.22
2023-02-16T08:54:05.563Z,38.90
2023-02-16T08:56:33.193Z,42.05
2023-02-16T08:59:00.210Z,41.10
2023-02-16T09:01:26.998Z,39.88
2023-02-16T09:03:55.948Z,37.72
2023-02-16T09:06:22.907Z,38.17
2023-02-16T09:08:56.981Z,38.05
2023-02-16T09:13:57.549Z,39.88
2023-02-16T09:16:34.379Z,44.25
2023-02-16T09:19:02.234Z,39.20
2023-02-16T09:21:33.468Z,41.08
2023-02-16T09:24:07.663Z,39.55
2023-02-16T09:26:39.032Z,41.60
2023-02-16T09:29:07.160Z,37.28
2023-02-16T09:31:37.508Z,38.47
2023-02-16T09:34:22.721Z,37.75
2023-02-16T09:36:50.895Z,39.03
2023-02-16T09:39:18.652Z,41.22
2023-02-16T09:42:03.993Z,39.88
2023-02-16T09:44:30.728Z,38.65
2023-02-16T09:47:10.375Z,39.75
2023-02-16T09:49:46.898Z,39.30
2023-02-16T09:52:42.866Z,39.83
2023-02-16T09:55:22.764Z,38.85
2023-02-16T09:58:06.257Z,37.90
2023-02-16T10:00:33.037Z,36.40
2023-02-16T10:03:28.984Z,38.65
2023-02-16T10:06:17.246Z,37.80
2023-02-16T10:08:53.285Z,36.45
2023-02-16T10:11:46.899Z,38.72
2023-02-16T10:14:51.163Z,39.03
2023-02-16T10:17:40.918Z,42.45
2023-02-16T10:20:29.019Z,39.40
2023-02-16T10:23:23.259Z,37.83
2023-02-16T10:26:30.117Z,37.13
2023-02-16T10:29:07.262Z,36.53
2023-02-16T10:31:43.566Z,38.63
2023-02-16T10:34:23.290Z,37.45
2023-02-16T10:37:05.779Z,38.33
2023-02-16T10:39:43.220Z,38.75
2023-02-16T10:42:30.035Z,42.83
2023-02-16T10:45:27.320Z,40.13
2023-02-16T10:47:57.383Z,37.88
2023-02-16T10:51:07.856Z,39.92
2023-02-16T10:53:47.720Z,39.00
2023-02-16T10:56:41.510Z,37.65
2023-02-16T10:59:21.240Z,38.65
2023-02-16T11:01:52.109Z,37.70
2023-02-16T11:04:43.715Z,37.55
2023-02-16T11:07:13.420Z,37.03
2023-02-16T11:09:42.234Z,36.20
2023-02-16T11:12:32.650Z,38.40
2023-02-16T11:15:23.688Z,34.88
2023-02-16T11:17:57.138Z,36.30
2023-02-16T11:20:35.689Z,38.67
2023-02-16T11:23:14.439Z,37.45
2023-02-16T11:25:44.391Z,37.85
2023-02-16T11:28:46.971Z,40.00
2023-02-16T11:31:32.926Z,34.80
2023-02-16T11:34:27.331Z,35.72
2023-02-16T11:37:09.252Z,36.78
2023-02-16T11:39:39.421Z,35.22
2023-02-16T11:42:47.135Z,37.97
2023-02-16T11:45:38.667Z,35.28
2023-02-16T11:48:11.496Z,34.53
2023-02-16T11:50:59.618Z,36.38
2023-02-16T11:53:38.161Z,37.20
2023-02-16T11:56:30.173Z,35.55
2023-02-16T11:59:21.490Z,37.45
2023-02-16T12:02:24.446Z,34.92
2023-02-16T12:05:05.212Z,34.78
2023-02-16T12:07:50.089Z,35.65
2023-02-16T12:10:28.824Z,36.55
2023-02-16T12:13:07.089Z,37.65
2023-02-16T12:15:51.245Z,38.17
2023-02-16T12:18:43.458Z,37.40
2023-02-16T12:21:37.855Z,37.92
2023-02-16T12:24:19.834Z,36.67
2023-02-16T12:26:56.200Z,34.15
2023-02-16T12:29:31.891Z,35.85
2023-02-16T12:32:30.271Z,33.88
2023-02-16T12:35:36.045Z,33.45
2023-02-16T12:40:47.057Z,36.00
2023-02-16T12:43:33.897Z,34.67
2023-02-16T12:46:39.771Z,32.90
2023-02-16T12:49:49.724Z,38.00
2023-02-16T12:53:04.358Z,34.90
2023-02-16T12:55:51.173Z,33.42
2023-02-16T12:58:24.317Z,34.35
2023-02-16T13:00:58.815Z,33.45
2023-02-16T13:03:54.106Z,35.67
2023-02-16T13:06:37.656Z,42.10
2023-02-16T13:09:38.256Z,34.40
2023-02-16T13:12:07.741Z,35.00
2023-02-16T13:14:40.162Z,34.25
2023-02-16T13:17:36.144Z,35.35
2023-02-16T13:20:16.783Z,32.80
2023-02-16T13:23:18.639Z,32.17
2023-02-16T13:26:31.507Z,33.88
2023-02-16T13:29:30.616Z,31.77
2023-02-16T13:32:41.706Z,31.45
2023-02-16T13:35:17.284Z,30.73
2023-02-16T13:38:26.799Z,33.13
2023-02-16T13:41:24.200Z,30.25
2023-02-16T13:43:53.857Z,32.35
2023-02-16T13:46:34.090Z,31.88
2023-02-16T13:51:46.341Z,30.48
2023-02-16T13:54:36.841Z,34.20
2023-02-16T13:57:04.727Z,29.92
2023-02-16T13:59:37.533Z,30.92
2023-02-16T14:02:14.309Z,35.90
2023-02-16T14:04:40.917Z,32.13
2023-02-16T14:07:07.662Z,31.67
2023-02-16T14:09:51.301Z,32.50
2023-02-16T14:12:20.061Z,29.30
2023-02-16T14:14:58.488Z,31.58
2023-02-16T14:17:29.805Z,32.03
2023-02-16T14:20:18.927Z,32.33
2023-02-16T14:22:45.493Z,33.45
2023-02-16T14:25:24.268Z,31.13
2023-02-16T14:28:01.452Z,30.50
2023-02-16T14:30:56.368Z,31.63
2023-02-16T14:33:46.635Z,32.47
2023-02-16T14:36:21.730Z,31.27
2023-02-16T14:38:50.950Z,32.35
2023-02-16T14:41:26.153Z,33.10
2023-02-16T14:44:04.993Z,33.53
2023-02-16T14:46:46.488Z,32.78
2023-02-16T14:49:40.818Z,33.42
2023-02-16T14:52:22.514Z,33.47
2023-02-16T14:55:16.367Z,32.25
2023-02-16T14:58:04.577Z,31.83
2023-02-16T15:00:40.647Z,33.33
2023-02-16T15:03:23.134Z,30.80
2023-02-16T15:06:00.091Z,32.05
2023-02-16T15:08:49.972Z,31.13
2023-02-16T15:11:28.640Z,30.30
2023-02-16T15:13:58.601Z,31.98
2023-02-16T15:16:28.379Z,31.38
2023-02-16T15:19:00.377Z,33.33
2023-02-16T15:21:28.595Z,33.53
2023-02-16T15:24:00.650Z,32.15
2023-02-16T15:26:33.556Z,32.90
2023-02-16T15:29:05.500Z,31.52
2023-02-16T15:31:34.780Z,30.65
2023-02-16T15:34:07.559Z,34.15
2023-02-16T15:36:40.802Z,30.02
2023-02-16T15:39:41.318Z,30.67
2023-02-16T15:42:15.134Z,30.90
2023-02-16T15:44:43.679Z,30.42
2023-02-16T15:47:25.008Z,29.70
2023-02-16T15:49:54.072Z,29.50
2023-02-16T15:52:35.864Z,30.23
2023-02-16T15:55:06.447Z,30.02
2023-02-16T15:57:38.137Z,32.35
2023-02-16T16:00:15.879Z,31.60
2023-02-16T16:02:47.620Z,29.00
2023-02-16T16:05:39.154Z,30.15
2023-02-16T16:08:17.115Z,29.02
2023-02-16T16:10:46.569Z,34.95
2023-02-16T16:13:20.778Z,30.67
2023-02-16T16:15:53.674Z,29.50
2023-02-16T16:18:39.377Z,29.30
2023-02-16T16:21:19.716Z,28.38
2023-02-16T16:26:57.860Z,31.13
2023-02-16T16:29:47.759Z,28.75
2023-02-16T16:32:18.305Z,28.35
2023-02-16T16:34:45.502Z,31.05
2023-02-16T16:37:29.433Z,32.45
2023-02-16T16:40:05.159Z,29.23
2023-02-16T16:42:39.397Z,31.05
2023-02-16T16:45:25.446Z,31.98
2023-02-16T16:47:52.520Z,33.13
2023-02-16T16:50:33.171Z,32.42
2023-02-16T16:53:09.387Z,31.10
2023-02-16T16:55:36.174Z,33.47
2023-02-16T16:58:10.446Z,33.03
2023-02-16T17:00:40.346Z,31.88
2023-02-16T17:03:09.511Z,32.67
2023-02-16T17:05:40.128Z,32.30
2023-02-16T17:08:09.451Z,36.15
2023-02-16T17:10:46.598Z,32.40
2023-02-16T17:13:20.150Z,33.67
2023-02-16T17:15:57.425Z,33.67
2023-02-16T17:18:24.117Z,33.00
2023-02-16T17:20:51.785Z,32.03
2023-02-16T17:23:20.830Z,32.72
2023-02-16T17:25:50.673Z,30.10
2023-02-16T17:28:19.180Z,31.63
2023-02-16T17:30:45.917Z,30.90
2023-02-16T17:33:12.805Z,31.85
2023-02-16T17:35:42.041Z,32.47
2023-02-16T17:38:11.421Z,29.90
2023-02-16T17:40:39.433Z,30.73
2023-02-16T17:43:14.247Z,29.00
2023-02-16T17:45:41.809Z,30.77
2023-02-16T17:53:09.592Z,30.70
2023-02-16T17:55:36.234Z,34.75
2023-02-16T17:58:02.856Z,33.65
2023-02-16T18:00:29.637Z,40.75
2023-02-16T18:02:59.222Z,34.70
2023-02-16T18:05:28.839Z,34.30
2023-02-16T18:07:59.743Z,35.00
2023-02-16T18:10:38.269Z,33.63
2023-02-16T18:13:06.418Z,32.72
2023-02-16T18:15:33.673Z,35.22
2023-02-16T18:18:00.408Z,35.88
2023-02-16T18:20:27.570Z,33.33
2023-02-16T18:22:54.268Z,33.13
2023-02-16T18:25:21.009Z,30.95
2023-02-16T18:27:47.677Z,30.27
2023-02-16T18:30:19.343Z,31.17
2023-02-16T18:32:49.155Z,33.70
2023-02-16T18:35:21.937Z,31.20
2023-02-16T18:37:51.766Z,32.08
2023-02-16T18:40:20.206Z,31.60
2023-02-16T18:42:49.451Z,32.20
2023-02-16T18:45:16.617Z,30.80
2023-02-16T18:47:46.359Z,31.17
2023-02-16T18:50:13.104Z,31.92
2023-02-16T18:52:42.584Z,32.42
2023-02-16T18:55:10.294Z,29.40
2023-02-16T18:57:37.014Z,30.60
2023-02-16T19:00:06.351Z,29.92
2023-02-16T19:02:33.240Z,30.08
2023-02-16T19:05:02.569Z,30.67
2023-02-16T19:07:29.186Z,29.40
2023-02-16T19:09:55.864Z,30.60
2023-02-16T19:12:22.593Z,33.20
2023-02-16T19:14:51.802Z,30.95
2023-02-16T19:17:18.866Z,30.95
2023-02-16T19:19:46.312Z,31.20
2023-02-16T19:22:12.956Z,31.63
2023-02-16T19:24:39.641Z,32.15
2023-02-16T19:27:09.021Z,31.60
2023-02-16T19:29:35.676Z,32.15
2023-02-16T19:32:10.832Z,32.50
2023-02-16T19:34:37.536Z,34.47
2023-02-16T19:37:04.200Z,32.28
2023-02-16T19:39:33.981Z,33.47
2023-02-16T19:42:00.766Z,32.38
2023-02-16T19:44:27.431Z,32.47
2023-02-16T19:46:57.648Z,32.90
2023-02-16T19:49:24.236Z,32.63
2023-02-16T19:51:51.595Z,33.28
2023-02-16T19:54:18.252Z,31.48
2023-02-16T19:56:44.972Z,31.65
2023-02-16T19:59:11.868Z,36.15
2023-02-16T20:01:44.544Z,32.72
2023-02-16T20:04:12.925Z,33.83
2023-02-16T20:06:41.921Z,33.97
2023-02-16T20:09:12.446Z,32.45
2023-02-16T20:11:40.155Z,30.90
2023-02-16T20:14:06.916Z,31.67
2023-02-16T20:16:33.561Z,33.22
2023-02-16T20:19:00.511Z,31.70
2023-02-16T20:21:29.147Z,35.10
2023-02-16T20:24:00.523Z,35.28
2023-02-16T20:26:39.224Z,33.38
2023-02-16T20:29:07.983Z,34.75
2023-02-16T20:31:46.935Z,36.53
2023-02-16T20:34:16.686Z,33.83
2023-02-16T20:36:46.878Z,34.38
2023-02-16T20:39:13.757Z,32.90
2023-02-16T20:41:41.494Z,33.03
2023-02-16T20:44:11.734Z,33.97
2023-02-16T20:46:39.374Z,31.65
2023-02-16T20:49:09.757Z,32.83
2023-02-16T20:51:37.306Z,31.70
2023-02-16T20:56:37.710Z,31.63
2023-02-16T20:59:04.933Z,31.95
2023-02-16T21:01:47.213Z,33.00
2023-02-16T21:04:16.822Z,34.25
2023-02-16T21:06:46.504Z,31.85
2023-02-16T21:09:14.303Z,31.58
2023-02-16T21:11:41.748Z,32.63
2023-02-16T21:14:10.495Z,32.70
2023-02-16T21:16:37.726Z,32.08
2023-02-16T21:19:11.730Z,34.60
2023-02-16T21:21:43.904Z,33.15
2023-02-16T21:24:10.613Z,31.67
2023-02-16T21:26:37.289Z,34.38
2023-02-16T21:29:04.202Z,32.30
2023-02-16T21:31:36.543Z,32.67
2023-02-16T21:34:03.287Z,32.90
2023-02-16T21:36:30.054Z,33.15
2023-02-16T21:38:56.723Z,31.75
2023-02-16T21:41:26.680Z,33.42
2023-02-16T21:44:02.182Z,32.78
2023-02-16T21:46:34.540Z,32.92
2023-02-16T21:49:01.516Z,34.30
2023-02-16T21:51:33.637Z,33.28
2023-02-16T21:54:00.715Z,33.85
2023-02-16T21:56:31.369Z,33.25
2023-02-16T21:58:58.465Z,33.65
2023-02-16T22:01:31.205Z,35.28
2023-02-16T22:04:00.847Z,31.80
2023-02-16T22:06:32.392Z,34.13
2023-02-16T22:09:03.438Z,33.53
2023-02-16T22:11:30.125Z,32.40
2023-02-16T22:14:02.584Z,31.38
2023-02-16T22:16:40.300Z,33.85
2023-02-16T22:19:11.042Z,34.72
2023-02-16T22:21:41.879Z,33.63
2023-02-16T22:24:14.140Z,32.97
2023-02-16T22:26:43.765Z,33.47
2023-02-16T22:29:11.374Z,35.60
2023-02-16T22:34:08.388Z,35.05
2023-02-16T22:36:37.576Z,37.55
2023-02-16T22:39:08.769Z,33.63
2023-02-16T22:41:38.299Z,36.03
2023-02-16T22:44:05.838Z,35.90
2023-02-16T22:51:29.349Z,33.08
2023-02-16T22:53:59.548Z,34.20
2023-02-16T22:56:27.102Z,33.00
2023-02-16T23:01:32.053Z,35.55
2023-02-16T23:04:00.607Z,35.05
2023-02-16T23:06:28.839Z,35.67
2023-02-16T23:09:03.226Z,34.83
2023-02-16T23:11:30.581Z,34.03
2023-02-16T23:13:57.389Z,35.05
2023-02-16T23:16:34.010Z,34.55
2023-02-16T23:19:01.192Z,33.15
2023-02-16T23:21:35.504Z,35.78
2023-02-16T23:24:05.374Z,33.33
2023-02-16T23:26:35.037Z,36.38
2023-02-16T23:29:07.270Z,33.88
2023-02-16T23:31:36.197Z,34.70
2023-02-16T23:34:06.916Z,36.40
2023-02-16T23:36:36.791Z,36.72
2023-02-16T23:39:08.305Z,35.95
2023-02-16T23:41:37.678Z,35.70
2023-02-16T23:44:05.246Z,36.50
2023-02-16T23:48:58.979Z,36.55
2023-02-16T23:51:26.496Z,37.67
2023-02-16T23:53:57.713Z,37.47
2023-02-16T23:56:26.733Z,37.35
2023-02-16T23:59:00.886Z,36.78
